Time;durP1;ratioP1;P1;durP2;ratioP2;P2;SDS_P1;SDS_P2;PMS_P1;PMS_P2;Temp;Humidity;BMP_temperature;BMP_pressure;BME280_temperature;BME280_humidity;BME280_pressure;Samples;Min_cycle;Max_cycle;Signal;HPM_P1;HPM_P2
2021/04/07 00:00:32;;;;;;;10.60;5.83;;;8.90;94.80;;;9.66;46.87;100946.09;4914521;28;98610;-54
2021/04/07 00:02:59;;;;;;;14.13;6.47;;;9.10;91.90;;;9.74;47.57;100938.88;4883004;28;99865;-53
2021/04/07 00:05:33;;;;;;;11.47;6.30;;;9.10;93.90;;;9.99;46.51;100943.44;4904614;28;101336;-52
2021/04/07 00:07:59;;;;;;;8.47;5.37;;;9.40;92.60;;;9.99;45.58;100951.34;4908287;28;98026;-52
2021/04/07 00:10:43;;;;;;;8.07;5.70;;;9.40;92.20;;;10.17;46.45;100942.91;4896303;28;96974;-51
2021/04/07 00:13:12;;;;;;;9.37;5.60;;;9.50;92.00;;;9.97;46.73;100951.38;4892600;28;97961;-55
2021/04/07 00:15:38;;;;;;;7.90;5.37;;;9.20;93.00;;;10.11;43.95;100956.25;4897433;28;98566;-53
2021/04/07 00:18:05;;;;;;;9.53;5.23;;;9.40;91.30;;;10.40;46.21;100965.97;4908906;28;102453;-53
2021/04/07 00:20:32;;;;;;;10.90;5.83;;;9.70;93.10;;;10.35;46.01;100968.75;4898230;28;98870;-53
2021/04/07 00:22:59;;;;;;;8.17;5.13;;;9.60;92.00;;;10.68;44.60;100971.28;4894287;28;97597;-51
2021/04/07 00:25:26;;;;;;;6.27;5.20;;;10.10;90.40;;;10.70;44.26;100969.44;4911801;28;99932;-52
2021/04/07 00:28:01;;;;;;;8.47;5.77;;;10.10;90.30;;;10.70;44.71;100965.06;4888535;28;97502;-52
2021/04/07 00:30:37;;;;;;;7.73;5.20;;;10.10;90.40;;;10.80;45.04;100965.63;4899106;28;99755;-55
2021/04/07 00:33:04;;;;;;;10.47;5.63;;;10.10;91.40;;;10.73;43.53;100966.72;4910619;28;97132;-52
2021/04/07 00:35:30;;;;;;;7.77;5.53;;;10.00;90.20;;;10.74;45.30;100960.53;4896366;28;97420;-54
2021/04/07 00:37:56;;;;;;;10.57;5.80;;;9.90;92.20;;;10.92;44.80;100969.66;4886803;28;98506;-50
2021/04/07 00:40:23;;;;;;;8.30;5.10;;;10.20;91.70;;;10.96;43.83;100961.56;4895416;28;99956;-53
2021/04/07 00:42:52;;;;;;;10.50;6.10;;;10.30;90.00;;;10.85;43.54;100961.06;4894935;28;99887;-53
2021/04/07 00:45:19;;;;;;;8.10;5.67;;;10.10;90.20;;;10.46;44.32;100967.59;4897140;28;97631;-54
2021/04/07 00:47:48;;;;;;;7.77;5.17;;;9.60;90.50;;;10.40;45.90;100964.19;4910447;28;100988;-52
2021/04/07 00:50:15;;;;;;;11.00;5.73;;;9.40;92.10;;;10.18;44.54;100965.72;4896091;28;96948;-53
2021/04/07 00:52:41;;;;;;;9.30;5.60;;;9.20;91.20;;;9.96;45.51;100954.06;4910882;28;97847;-59
2021/04/07 00:55:08;;;;;;;7.03;5.73;;;9.00;91.80;;;9.95;46.82;100952.31;4897271;28;99320;-51
2021/04/07 00:57:33;;;;;;;11.13;6.07;;;8.90;92.70;;;10.06;46.68;100960.81;4896099;28;99180;-53
2021/04/07 01:00:00;;;;;;;9.57;5.30;;;9.00;92.90;;;10.07;44.22;100962.53;4894386;28;97044;-51
2021/04/07 01:02:26;;;;;;;9.27;4.87;;;9.20;91.60;;;9.95;46.00;100962.88;4898327;28;98403;-53
2021/04/07 01:04:52;;;;;;;9.47;5.40;;;9.10;92.80;;;9.90;46.42;100959.50;4910104;28;97218;-53
2021/04/07 01:07:19;;;;;;;8.93;5.13;;;9.10;91.70;;;10.23;45.69;100963.84;4895667;28;97160;-53
2021/04/07 01:09:45;;;;;;;8.63;5.10;;;9.60;92.10;;;10.50;44.70;100962.16;4874889;28;99137;-54
2021/04/07 01:12:12;;;;;;;11.23;5.90;;;10.10;90.40;;;10.66;43.74;100973.09;4913397;28;100173;-53
2021/04/07 01:14:38;;;;;;;12.93;5.53;;;10.30;88.50;;;10.67;44.29;100972.19;4893681;28;100314;-53
2021/04/07 01:17:05;;;;;;;8.23;4.63;;;10.10;90.50;;;10.74;45.10;100971.09;4887577;28;98937;-54
2021/04/07 01:19:32;;;;;;;9.13;5.10;;;10.20;91.10;;;10.67;43.24;100964.28;4878995;28;98243;-50
2021/04/07 01:21:58;;;;;;;7.20;5.13;;;10.30;87.90;;;10.80;43.99;100968.25;4890029;28;99430;-54
2021/04/07 01:24:25;;;;;;;7.13;4.03;;;10.30;90.40;;;11.04;44.74;100974.53;4911528;28;98488;-50
2021/04/07 01:26:52;;;;;;;9.23;4.80;;;10.60;91.10;;;11.14;43.18;100975.06;4910225;28;102196;-55
2021/04/07 01:29:19;;;;;;;6.93;4.70;;;10.80;87.60;;;11.23;43.08;100972.16;4912567;28;99295;-55
2021/04/07 01:31:54;;;;;;;6.80;4.87;;;10.80;88.00;;;11.12;41.68;100972.50;4885393;28;98468;-51
2021/04/07 01:34:29;;;;;;;6.30;4.73;;;10.80;84.70;;;10.91;44.25;100979.34;4918626;28;98589;-54
2021/04/07 01:36:56;;;;;;;8.17;4.57;;;10.30;89.90;;;10.41;42.94;100987.06;4906587;28;98093;-55
2021/04/07 01:39:26;;;;;;;10.30;4.90;;;9.90;88.70;;;10.38;42.70;100979.19;4928027;28;96960;-51
2021/04/07 01:41:52;;;;;;;6.67;4.33;;;9.80;88.30;;;10.43;44.07;100982.59;4930299;28;96758;-52
2021/04/07 01:44:20;;;;;;;8.07;4.30;;;9.80;89.60;;;10.14;45.17;100985.19;4919358;28;99874;-52
2021/04/07 01:46:46;;;;;;;5.60;3.50;;;9.60;90.50;;;10.14;44.93;100985.19;4929056;28;96831;-55
2021/04/07 01:49:14;;;;;;;4.47;3.77;;;9.50;90.60;;;10.26;45.36;100982.19;4905010;28;96856;-53
2021/04/07 01:51:40;;;;;;;8.77;4.17;;;9.70;90.70;;;10.40;43.87;100987.94;4931589;28;104185;-51
2021/04/07 01:54:10;;;;;;;7.27;4.20;;;10.00;88.90;;;10.34;43.38;100982.84;4971984;22;103584;-52
2021/04/07 01:56:50;;;;;;;7.20;3.77;;;9.90;88.30;;;10.60;45.14;100984.72;4960669;28;99192;-52
2021/04/07 01:59:46;;;;;;;4.63;3.17;;;10.10;90.70;;;10.96;43.82;100987.09;4953129;28;97869;-51
2021/04/07 02:02:12;;;;;;;5.17;3.00;;;10.60;88.20;;;10.85;42.73;100984.81;4940966;28;97052;-54
2021/04/07 02:04:38;;;;;;;7.13;3.43;;;10.60;86.20;;;10.83;43.28;100989.25;4972703;28;99463;-53
2021/04/07 02:07:12;;;;;;;7.73;3.67;;;10.50;85.90;;;10.63;43.56;100986.38;4953652;28;97998;-50
2021/04/07 02:09:39;;;;;;;7.60;3.43;;;10.10;88.90;;;10.75;44.58;100978.09;4974417;28;97240;-51
2021/04/07 02:12:05;;;;;;;6.73;3.70;;;10.30;90.20;;;10.78;44.21;100983.28;4956730;28;97064;-54
2021/04/07 02:14:32;;;;;;;6.47;2.93;;;10.30;90.00;;;10.79;42.44;100978.88;4956808;28;99146;-53
2021/04/07 02:17:01;;;;;;;8.67;3.53;;;10.50;84.90;;;10.49;42.22;100985.94;4955168;28;99128;-51
2021/04/07 02:19:30;;;;;;;6.40;3.60;;;10.30;84.50;;;10.34;42.34;100982.84;4958585;28;99623;-52
2021/04/07 02:22:14;;;;;;;7.07;2.90;;;9.90;86.40;;;10.06;42.54;100976.63;4953160;28;96925;-53
2021/04/07 02:24:43;;;;;;;6.47;2.80;;;9.50;89.10;;;10.03;45.83;100976.72;4953026;28;102238;-59
2021/04/07 02:27:21;;;;;;;6.30;3.40;;;9.50;90.70;;;9.99;45.32;100965.41;4971756;28;98296;-50
2021/04/07 02:29:51;;;;;;;5.10;3.40;;;9.50;90.30;;;10.00;41.99;100975.03;4970761;28;96887;-53
2021/04/07 02:32:18;;;;;;;3.67;2.37;;;9.70;86.70;;;10.49;44.83;100975.41;4953725;28;96895;-53
2021/04/07 02:34:44;;;;;;;3.67;2.80;;;10.20;90.50;;;10.32;44.46;100968.84;4952694;28;98510;-51
2021/04/07 02:37:16;;;;;;;5.20;2.87;;;10.00;88.60;;;10.17;42.94;100974.53;4940813;28;99227;-49
2021/04/07 02:39:43;;;;;;;6.47;3.57;;;9.90;87.20;;;10.48;44.57;100973.66;4954337;28;96697;-53
2021/04/07 02:42:10;;;;;;;6.83;3.37;;;10.10;89.90;;;10.62;42.40;100976.75;4937080;28;97405;-50
2021/04/07 02:44:37;;;;;;;4.87;3.53;;;10.40;87.60;;;10.75;44.12;100972.81;4955563;28;97873;-52
2021/04/07 02:47:03;;;;;;;7.10;3.77;;;10.50;87.80;;;10.83;44.30;100973.44;4949426;28;99041;-50
2021/04/07 02:49:30;;;;;;;4.93;3.80;;;10.50;89.10;;;10.89;43.20;100967.97;4955769;28;98363;-51
2021/04/07 02:51:56;;;;;;;7.33;3.40;;;10.60;87.70;;;10.85;43.39;100971.63;4968719;28;97322;-51
2021/04/07 02:54:22;;;;;;;5.70;3.30;;;10.60;86.80;;;10.83;43.69;100968.16;4969622;28;98410;-52
2021/04/07 02:56:49;;;;;;;6.47;3.90;;;10.50;87.80;;;10.70;43.09;100974.72;4971466;28;97832;-52
2021/04/07 02:59:15;;;;;;;7.33;3.90;;;10.30;86.00;;;10.71;44.26;100971.19;4956708;28;97418;-52
2021/04/07 03:01:41;;;;;;;8.30;3.67;;;10.30;89.80;;;10.87;42.87;100975.09;4956878;28;97838;-59
2021/04/07 03:04:07;;;;;;;4.47;3.40;;;10.60;84.30;;;11.00;43.46;100968.50;4954314;28;103165;-50
2021/04/07 03:06:33;;;;;;;6.30;3.43;;;10.70;86.20;;;10.97;41.88;100978.28;4977356;28;97149;-50
2021/04/07 03:08:59;;;;;;;7.17;3.57;;;10.80;84.10;;;11.24;43.53;100981.78;4949632;28;97491;-56
2021/04/07 03:11:26;;;;;;;5.43;3.03;;;11.00;88.10;;;11.27;43.23;100974.63;4958282;28;97527;-50
2021/04/07 03:13:52;;;;;;;4.10;3.07;;;11.10;86.00;;;11.30;43.27;100971.03;4949992;28;100246;-54
2021/04/07 03:16:18;;;;;;;5.67;3.03;;;11.10;87.30;;;11.59;42.70;100976.19;4954902;28;96909;-54
2021/04/07 03:18:44;;;;;;;7.27;3.80;;;11.40;85.70;;;11.49;42.70;100977.41;4951813;28;96948;-54
2021/04/07 03:21:10;;;;;;;6.43;4.10;;;11.40;84.60;;;11.09;42.67;100971.72;4973443;28;97214;-53
2021/04/07 03:23:36;;;;;;;7.47;3.77;;;10.80;84.60;;;11.07;43.76;100994.69;4975202;28;99785;-52
2021/04/07 03:26:03;;;;;;;8.13;4.20;;;10.50;88.60;;;11.10;43.49;100997.22;4950958;28;100251;-54
2021/04/07 03:28:29;;;;;;;7.43;4.33;;;10.60;87.40;;;10.86;43.17;100997.09;4957293;28;97333;-53
2021/04/07 03:30:56;;;;;;;9.70;4.17;;;10.40;86.60;;;10.95;41.24;100996.78;4965701;28;98136;-51
2021/04/07 03:33:26;;;;;;;6.53;4.23;;;10.60;84.80;;;11.17;42.02;100996.13;4955963;28;100459;-55
2021/04/07 03:35:52;;;;;;;8.23;4.40;;;10.90;84.60;;;10.97;41.58;100994.97;4965351;28;97466;-53
2021/04/07 03:38:19;;;;;;;7.07;4.70;;;10.80;84.00;;;11.09;40.74;100995.50;4954250;28;97267;-51
2021/04/07 03:40:46;;;;;;;8.67;4.50;;;10.80;84.10;;;11.04;40.66;101003.56;4951470;28;97818;-51
2021/04/07 03:43:16;;;;;;;7.43;5.00;;;10.90;83.50;;;10.78;43.34;100996.47;4951416;28;98819;-53
2021/04/07 03:45:43;;;;;;;7.23;4.80;;;10.30;86.50;;;10.78;44.40;100988.56;4952221;28;99350;-52
2021/04/07 03:48:14;;;;;;;5.40;4.60;;;10.20;90.00;;;10.72;43.79;100994.03;4971241;28;97876;-52
2021/04/07 03:50:41;;;;;;;7.07;3.97;;;10.30;87.90;;;10.87;42.71;100988.28;4957826;28;96914;-50
2021/04/07 03:53:09;;;;;;;8.03;5.03;;;10.50;87.00;;;10.93;43.89;100993.34;4966603;28;101833;-51
2021/04/07 03:55:36;;;;;;;4.97;4.40;;;10.60;87.70;;;11.06;44.15;100987.69;4954305;28;97134;-53
2021/04/07 03:58:03;;;;;;;8.83;5.83;;;10.70;87.80;;;11.08;44.12;100980.56;4948206;28;97174;-53
2021/04/07 04:00:30;;;;;;;7.03;5.27;;;10.60;88.30;;;11.02;42.08;100992.22;4955338;28;97570;-51
2021/04/07 04:02:56;;;;;;;7.50;5.87;;;10.80;85.40;;;10.87;44.33;100990.91;4951518;28;98755;-54
2021/04/07 04:05:22;;;;;;;8.47;5.73;;;10.50;88.00;;;11.21;43.24;100993.31;4952485;28;97412;-52
2021/04/07 04:07:48;;;;;;;6.33;4.93;;;10.90;86.30;;;11.20;43.78;100996.88;4968382;28;100313;-53
2021/04/07 04:10:14;;;;;;;7.60;5.53;;;10.80;88.40;;;10.80;43.53;100992.00;4952186;28;97515;-54
2021/04/07 04:12:41;;;;;;;7.97;5.40;;;10.20;88.30;;;10.78;43.82;101004.38;4954218;28;111523;-57
2021/04/07 04:15:09;;;;;;;9.97;5.60;;;10.30;87.60;;;10.66;44.78;100999.47;4950307;28;97457;-49
2021/04/07 04:17:37;;;;;;;6.70;5.13;;;10.10;90.30;;;10.80;43.50;100997.28;4955706;28;97603;-54
2021/04/07 04:20:05;;;;;;;6.93;5.43;;;10.40;87.80;;;10.63;44.57;100989.03;4947355;28;97526;-54
2021/04/07 04:22:32;;;;;;;8.37;5.30;;;10.20;88.00;;;10.51;45.11;100992.03;4967990;28;99381;-51
2021/04/07 04:24:58;;;;;;;6.90;4.73;;;10.00;90.40;;;10.42;45.45;100991.41;4950848;28;99392;-51
2021/04/07 04:27:23;;;;;;;8.83;6.13;;;9.80;90.60;;;10.51;45.33;100990.25;4954423;28;97061;-49
2021/04/07 04:29:49;;;;;;;7.17;5.63;;;10.00;90.30;;;10.56;43.28;100988.38;4943225;28;100171;-50
2021/04/07 04:32:15;;;;;;;7.60;6.27;;;10.20;87.10;;;10.71;43.64;100992.31;4950977;28;100527;-53
2021/04/07 04:34:41;;;;;;;6.73;5.97;;;10.30;87.40;;;10.88;44.12;101000.56;4954347;28;98103;-56
2021/04/07 04:37:07;;;;;;;7.03;5.57;;;10.50;89.60;;;11.07;44.34;100992.03;4970500;28;108441;-53
2021/04/07 04:39:33;;;;;;;9.30;5.80;;;10.70;89.10;;;10.93;43.11;101001.28;4972754;28;97138;-53
2021/04/07 04:41:59;;;;;;;8.27;6.20;;;10.70;85.60;;;11.35;42.78;100990.22;4949528;28;97011;-52
2021/04/07 04:44:25;;;;;;;7.10;5.83;;;11.00;86.50;;;11.36;40.87;100996.38;4955913;28;98209;-53
2021/04/07 04:46:50;;;;;;;7.23;5.67;;;11.30;84.50;;;11.45;43.18;100991.66;4970865;28;99037;-49
2021/04/07 04:49:16;;;;;;;7.10;5.83;;;11.20;87.50;;;11.44;42.42;100997.84;4970115;28;102591;-49
2021/04/07 04:51:42;;;;;;;7.53;5.63;;;11.20;85.30;;;11.31;40.47;100993.91;4952184;28;97403;-57
2021/04/07 04:54:08;;;;;;;6.53;5.77;;;11.20;82.20;;;11.28;43.25;101001.91;4937745;28;98623;-51
2021/04/07 04:56:33;;;;;;;8.10;5.90;;;11.00;85.90;;;11.09;43.11;100996.34;4954976;28;97413;-50
2021/04/07 04:58:59;;;;;;;5.00;4.37;;;10.70;86.90;;;11.28;43.77;100999.25;4932628;28;97521;-50
2021/04/07 05:01:25;;;;;;;6.77;4.90;;;10.90;88.30;;;11.23;42.20;101001.19;4972711;28;97497;-52
2021/04/07 05:03:51;;;;;;;6.50;4.93;;;11.00;85.00;;;11.59;42.79;101005.25;4946809;28;99615;-51
2021/04/07 05:06:17;;;;;;;4.37;3.97;;;11.30;86.20;;;11.42;43.32;101007.56;4970032;28;97138;-48
2021/04/07 05:08:48;;;;;;;6.57;5.40;;;11.10;87.20;;;11.33;43.26;101015.84;4952059;28;96995;-53
2021/04/07 05:11:14;;;;;;;7.13;4.87;;;11.00;85.60;;;11.39;43.04;101007.69;4953748;28;100207;-52
2021/04/07 05:13:40;;;;;;;5.67;5.03;;;11.00;87.10;;;11.37;41.68;101012.16;4955921;28;97271;-51
2021/04/07 05:16:06;;;;;;;6.23;4.80;;;11.10;84.10;;;11.58;42.83;101008.81;4949534;28;96879;-51
2021/04/07 05:18:32;;;;;;;9.53;6.17;;;11.40;86.30;;;11.45;41.59;101018.06;4970506;28;97001;-50
2021/04/07 05:20:58;;;;;;;8.03;5.47;;;11.40;83.00;;;11.33;43.39;101007.91;4964661;28;97109;-54
2021/04/07 05:23:24;;;;;;;9.07;5.80;;;11.10;86.60;;;11.40;42.91;101014.69;4953404;28;97339;-49
2021/04/07 05:25:50;;;;;;;6.47;4.67;;;11.10;86.40;;;11.33;42.47;101013.19;4966079;28;97351;-52
2021/04/07 05:28:16;;;;;;;6.57;4.57;;;11.10;84.70;;;11.65;42.65;101009.44;4970502;28;96851;-52
2021/04/07 05:31:00;;;;;;;6.87;4.93;;;11.50;85.70;;;11.51;42.64;101017.84;4968817;28;97183;-53
2021/04/07 05:33:37;;;;;;;6.43;4.40;;;11.30;85.40;;;11.10;42.97;101015.69;4952371;28;104087;-51
2021/04/07 05:36:06;;;;;;;5.27;3.47;;;10.70;87.50;;;11.28;44.11;101005.44;4948675;28;97281;-50
2021/04/07 05:38:33;;;;;;;6.33;4.37;;;10.90;89.20;;;11.05;42.58;101015.84;4968742;28;98090;-50
2021/04/07 05:41:01;;;;;;;5.80;4.30;;;10.90;85.00;;;11.29;43.20;101022.13;4967082;28;99876;-51
2021/04/07 05:43:28;;;;;;;4.00;3.57;;;11.00;86.40;;;11.51;43.59;101012.56;4953446;28;98385;-49
2021/04/07 05:45:55;;;;;;;4.27;3.60;;;11.30;86.40;;;11.67;43.09;101017.31;4951460;28;97272;-51
2021/04/07 05:48:21;;;;;;;5.23;4.30;;;11.50;86.90;;;11.38;41.73;101016.53;4950414;28;99876;-50
2021/04/07 05:50:53;;;;;;;4.27;3.77;;;11.20;83.50;;;11.14;43.39;101019.97;4949401;28;100430;-52
2021/04/07 05:53:19;;;;;;;4.20;3.53;;;10.80;87.50;;;10.84;44.85;101016.50;4950858;28;97369;-51
2021/04/07 05:55:51;;;;;;;5.97;4.50;;;10.40;89.60;;;10.93;43.84;101014.47;4948807;28;97339;-49
2021/04/07 05:58:18;;;;;;;6.63;4.80;;;10.60;87.80;;;10.73;44.77;101001.03;4953047;28;101960;-51
2021/04/07 06:00:45;;;;;;;3.83;3.10;;;10.40;88.30;;;11.13;44.21;100999.75;4947058;28;99469;-53
2021/04/07 06:03:11;;;;;;;4.33;3.93;;;10.90;87.80;;;11.31;41.92;101010.59;4953133;28;97809;-53
2021/04/07 06:05:43;;;;;;;5.17;4.03;;;11.20;84.70;;;11.56;42.83;101013.25;4948019;28;98985;-52
2021/04/07 06:08:10;;;;;;;5.93;4.30;;;11.40;84.80;;;11.02;42.94;101018.59;4952384;28;96824;-54
2021/04/07 06:10:42;;;;;;;8.57;4.93;;;10.90;86.50;;;11.20;43.93;101019.78;4948839;28;100378;-52
2021/04/07 06:13:09;;;;;;;3.83;3.30;;;10.80;87.50;;;11.35;43.43;101011.34;4965588;28;99621;-50
2021/04/07 06:15:37;;;;;;;4.17;3.70;;;11.10;86.00;;;10.99;44.24;101019.56;4952239;28;97750;-52
2021/04/07 06:18:07;;;;;;;4.50;4.00;;;10.60;88.00;;;11.18;43.23;101014.56;4949587;28;97582;-53
2021/04/07 06:20:39;;;;;;;5.07;4.10;;;10.90;85.90;;;11.27;43.88;101013.38;4970720;28;98767;-49
2021/04/07 06:23:06;;;;;;;5.77;3.43;;;11.00;87.40;;;11.46;43.01;101009.22;4964175;28;97937;-49
2021/04/07 06:25:33;;;;;;;6.03;4.50;;;11.30;86.10;;;10.86;44.17;101018.22;4954730;28;97533;-52
2021/04/07 06:28:04;;;;;;;5.57;3.83;;;10.70;87.00;;;10.87;44.42;101009.38;4953430;28;96840;-50
2021/04/07 06:30:40;;;;;;;5.70;4.30;;;10.60;88.10;;;10.37;46.14;101022.31;4950919;28;98458;-50
2021/04/07 06:33:14;;;;;;;6.10;4.63;;;9.80;91.30;;;10.56;43.80;101019.13;4965198;28;101319;-49
2021/04/07 06:35:44;;;;;;;6.00;5.20;;;10.30;87.70;;;10.57;44.80;101010.34;4970705;28;97738;-51
2021/04/07 06:38:10;;;;;;;5.53;4.43;;;10.50;88.20;;;10.79;43.19;101018.44;4952110;28;97507;-49
2021/04/07 06:40:36;;;;;;;5.83;4.30;;;10.60;87.30;;;11.16;44.35;101011.09;4974371;28;97581;-50
2021/04/07 06:43:04;;;;;;;8.20;5.03;;;10.90;88.50;;;11.33;42.84;100997.34;4964360;28;97377;-52
2021/04/07 06:45:33;;;;;;;6.37;5.37;;;11.20;86.10;;;11.28;44.12;101007.19;4954691;28;97387;-50
2021/04/07 06:48:00;;;;;;;6.53;5.10;;;11.00;88.10;;;11.16;42.77;101011.09;4953016;28;97181;-50
2021/04/07 06:50:26;;;;;;;11.73;6.47;;;11.00;86.40;;;11.20;43.92;101006.56;4953642;28;97608;-51
2021/04/07 06:52:57;;;;;;;8.10;5.70;;;10.90;87.00;;;11.30;43.46;101008.88;4946637;28;97628;-49
2021/04/07 06:55:25;;;;;;;7.77;6.07;;;11.10;86.30;;;11.08;43.42;101012.25;4955477;28;97738;-52
2021/04/07 06:57:52;;;;;;;8.07;5.03;;;10.80;86.60;;;10.26;44.39;101011.19;4955096;28;97487;-52
2021/04/07 07:00:18;;;;;;;9.43;5.10;;;10.30;86.70;;;10.74;45.38;101008.03;4970951;28;97129;-50
2021/04/07 07:02:44;;;;;;;9.40;4.93;;;10.40;90.30;;;11.09;45.04;101009.56;4967198;28;98259;-52
2021/04/07 07:05:11;;;;;;;8.40;6.00;;;10.80;90.20;;;11.06;42.52;101007.03;4951541;28;97597;-50
2021/04/07 07:07:37;;;;;;;7.97;6.03;;;11.00;85.50;;;11.00;44.23;101010.72;4955708;28;97386;-50
2021/04/07 07:10:04;;;;;;;7.43;5.50;;;10.80;88.10;;;11.06;42.29;101014.09;4968154;28;97657;-52
2021/04/07 07:12:31;;;;;;;9.60;5.23;;;11.00;84.90;;;10.81;43.02;101009.56;4938700;28;97274;-49
2021/04/07 07:15:03;;;;;;;5.97;4.10;;;10.80;86.80;;;10.95;43.45;101007.34;4951571;28;98252;-51
2021/04/07 07:17:34;;;;;;;5.60;4.07;;;10.70;87.30;;;11.02;43.69;101003.63;4955143;28;97130;-52
2021/04/07 07:20:02;;;;;;;6.83;3.53;;;10.80;88.20;;;10.47;43.13;100999.19;4960456;28;97185;-52
2021/04/07 07:22:30;;;;;;;6.30;3.23;;;10.50;86.80;;;11.08;44.16;101012.25;4939030;28;97611;-49
2021/04/07 07:24:59;;;;;;;8.63;4.47;;;10.90;89.20;;;11.24;43.54;101000.28;4950324;28;98580;-52
2021/04/07 07:27:43;;;;;;;7.40;3.30;;;11.10;85.80;;;11.03;43.80;100994.78;4950197;28;97446;-52
2021/04/07 07:30:12;;;;;;;7.47;2.93;;;10.90;86.10;;;11.02;42.64;101003.63;4951256;28;103598;-49
2021/04/07 07:32:43;;;;;;;5.23;3.67;;;11.00;85.80;;;10.97;45.01;101000.25;4971265;28;98576;-53
2021/04/07 07:35:16;;;;;;;5.77;3.10;;;10.60;89.30;;;11.24;44.23;100998.50;4961483;28;97405;-52
2021/04/07 07:37:44;;;;;;;6.03;2.83;;;11.10;89.00;;;11.56;42.59;101000.06;4954337;28;97306;-56
2021/04/07 07:40:18;;;;;;;5.60;3.20;;;11.60;85.90;;;11.53;43.64;101000.16;4968545;28;102151;-50
2021/04/07 07:42:46;;;;;;;5.30;3.50;;;11.50;86.10;;;11.39;43.91;101002.41;4952564;28;98756;-50
2021/04/07 07:45:14;;;;;;;6.23;3.20;;;11.30;86.10;;;11.47;43.73;101010.94;4967205;28;96956;-55
2021/04/07 07:47:44;;;;;;;5.83;3.40;;;11.30;86.30;;;11.48;42.68;101012.69;4956319;28;97432;-52
2021/04/07 07:50:11;;;;;;;6.70;3.50;;;11.50;85.30;;;11.58;41.61;101019.38;4949253;28;101902;-50
2021/04/07 07:52:39;;;;;;;6.60;3.80;;;11.60;83.50;;;11.62;42.94;101013.06;4957699;28;100108;-53
2021/04/07 07:55:19;;;;;;;7.73;4.80;;;11.60;84.60;;;11.52;43.44;101003.72;4950826;28;98227;-51
2021/04/07 07:57:55;;;;;;;5.30;3.77;;;11.30;85.40;;;10.59;44.61;101008.50;4953182;28;97379;-51
2021/04/07 08:00:26;;;;;;;6.63;4.23;;;10.50;87.50;;;10.18;45.54;101002.63;4970523;28;98792;-53
2021/04/07 08:02:53;;;;;;;11.33;5.37;;;9.90;89.30;;;9.58;46.29;101013.06;4950647;28;99809;-50
2021/04/07 08:05:21;;;;;;;7.77;4.60;;;9.10;91.00;;;8.56;49.34;101017.25;4969809;28;97296;-51
2021/04/07 08:07:47;;;;;;;6.27;3.30;;;7.90;94.80;;;8.73;49.87;101018.63;4934144;28;97789;-50
2021/04/07 08:10:14;;;;;;;8.40;2.90;;;8.30;93.90;;;9.02;49.12;101020.59;4957241;28;97107;-50
2021/04/07 08:12:42;;;;;;;5.30;3.00;;;8.80;92.60;;;9.75;48.27;101013.50;4971972;28;97010;-53
2021/04/07 08:15:10;;;;;;;8.13;3.80;;;9.50;92.60;;;9.90;47.42;101020.13;4951708;28;97259;-49
2021/04/07 08:17:37;;;;;;;5.13;2.50;;;9.60;91.60;;;9.91;45.01;101020.06;4967278;28;98753;-53
2021/04/07 08:20:07;;;;;;;5.07;2.50;;;9.70;90.90;;;8.65;50.50;101027.53;4970290;28;96992;-53
2021/04/07 08:22:36;;;;;;;6.57;3.13;;;8.40;94.10;;;7.93;50.88;101030.72;4950770;28;97943;-53
2021/04/07 08:25:04;;;;;;;5.20;2.80;;;7.80;94.30;;;8.96;48.59;101037.38;4966349;28;97233;-52
2021/04/07 08:27:40;;;;;;;5.23;2.80;;;8.70;93.40;;;9.46;48.48;101027.41;4952749;28;98023;-52
2021/04/07 08:30:08;;;;;;;6.20;2.97;;;9.30;92.10;;;8.52;48.33;101036.56;4942488;28;104028;-49
2021/04/07 08:32:33;;;;;;;3.43;2.90;;;8.80;92.00;;;8.84;49.85;101027.16;4951606;28;98027;-52
2021/04/07 08:35:00;;;;;;;4.33;2.50;;;8.80;92.70;;;8.60;49.92;101039.94;4931514;28;103194;-53
2021/04/07 08:37:27;;;;;;;3.03;2.73;;;8.50;93.20;;;9.35;48.21;101040.84;4974024;28;97008;-48
2021/04/07 08:39:53;;;;;;;4.30;2.70;;;9.20;92.20;;;9.52;47.96;101037.78;4967724;28;97599;-49
2021/04/07 08:42:19;;;;;;;2.70;2.20;;;9.50;91.60;;;9.59;47.91;101028.84;4959284;28;98152;-55
2021/04/07 08:44:49;;;;;;;4.97;2.60;;;9.60;91.70;;;9.51;46.54;101041.31;4933921;28;97043;-50
2021/04/07 08:47:29;;;;;;;2.93;2.30;;;9.50;90.80;;;9.97;46.34;101045.38;4972469;28;97148;-51
2021/04/07 08:50:05;;;;;;;3.00;2.50;;;10.00;90.70;;;9.80;47.59;101044.06;4945893;28;97726;-51
2021/04/07 08:52:31;;;;;;;3.27;2.47;;;9.60;91.70;;;10.21;46.70;101034.22;4947817;28;97312;-49
2021/04/07 08:55:00;;;;;;;4.97;2.80;;;10.10;91.30;;;9.81;47.00;101048.44;4951735;28;97746;-52
2021/04/07 08:57:36;;;;;;;3.63;2.70;;;9.80;90.30;;;9.27;48.59;101057.75;4939867;28;97382;-52
2021/04/07 09:00:15;;;;;;;4.13;2.70;;;9.30;92.10;;;9.27;46.96;101057.75;4962999;28;99036;-51
2021/04/07 09:02:54;;;;;;;2.60;2.40;;;9.30;91.20;;;9.48;48.33;101057.19;4949718;28;97529;-58
2021/04/07 09:05:35;;;;;;;3.90;2.63;;;9.30;92.30;;;10.16;46.95;101057.19;4968852;28;97377;-51
2021/04/07 09:08:02;;;;;;;3.10;2.27;;;10.10;91.40;;;10.14;45.85;101048.44;4949695;28;99871;-49
2021/04/07 09:10:46;;;;;;;3.13;2.60;;;10.40;90.00;;;10.41;45.96;101050.34;4974154;28;97845;-53
2021/04/07 09:13:18;;;;;;;3.17;2.33;;;10.40;91.00;;;10.55;45.60;101064.88;4948649;28;101968;-53
2021/04/07 09:16:00;;;;;;;4.03;2.90;;;10.60;89.10;;;10.79;44.36;101081.78;4967917;28;97960;-49
2021/04/07 09:18:44;;;;;;;3.53;2.20;;;10.80;87.90;;;10.79;45.26;101079.13;4968620;28;96841;-53
2021/04/07 09:21:16;;;;;;;3.17;2.70;;;10.70;90.10;;;10.55;45.85;101078.94;4949613;28;102748;-54
2021/04/07 09:23:50;;;;;;;4.20;2.30;;;10.30;90.50;;;10.82;44.32;101095.75;4966018;28;98699;-58
2021/04/07 09:26:19;;;;;;;3.93;2.67;;;10.60;89.60;;;10.61;45.01;101089.31;4935205;28;98269;-52
2021/04/07 09:28:53;;;;;;;2.27;2.07;;;10.60;88.40;;;10.22;46.91;101099.22;4932290;28;97690;-51
2021/04/07 09:31:21;;;;;;;3.47;2.47;;;10.00;91.40;;;10.25;45.34;101104.38;4937151;28;99800;-50
2021/04/07 09:33:50;;;;;;;4.03;3.00;;;10.00;90.20;;;10.26;46.77;101106.13;4939121;28;99850;-52
2021/04/07 09:36:20;;;;;;;2.33;2.13;;;9.90;91.60;;;10.32;45.46;101105.97;4970578;28;101323;-53
2021/04/07 09:38:54;;;;;;;3.57;3.00;;;10.00;91.20;;;10.65;45.86;101095.38;4947714;28;98540;-54
2021/04/07 09:41:25;;;;;;;6.77;5.10;;;10.40;90.80;;;10.45;46.63;101095.94;4970819;28;97744;-53
2021/04/07 09:43:53;;;;;;;3.30;3.00;;;10.20;91.20;;;10.06;46.54;101108.41;4946083;28;97421;-50
2021/04/07 09:46:20;;;;;;;4.17;2.73;;;9.80;91.10;;;10.22;47.15;101099.22;4953523;28;97648;-52
2021/04/07 09:48:56;;;;;;;4.00;3.60;;;9.70;93.00;;;9.86;47.62;101116.84;4956281;28;96819;-53
2021/04/07 09:51:40;;;;;;;3.00;2.40;;;9.40;92.90;;;9.39;49.23;101115.34;4968114;28;97069;-50
2021/04/07 09:54:39;;;;;;;3.20;2.70;;;8.90;93.80;;;8.94;50.22;101104.94;4946294;28;97863;-51
2021/04/07 09:57:12;;;;;;;2.93;2.73;;;8.40;94.70;;;9.27;49.02;101107.75;4963377;28;96847;-52
2021/04/07 09:59:42;;;;;;;3.07;2.77;;;8.90;93.80;;;8.63;50.10;101118.75;4957519;28;97494;-50
2021/04/07 10:02:09;;;;;;;2.53;2.23;;;8.30;94.50;;;7.69;53.38;101130.97;4951255;28;101789;-51
2021/04/07 10:04:42;;;;;;;3.87;2.83;;;7.40;96.70;;;7.57;54.54;101125.91;4955045;28;97086;-51
2021/04/07 10:07:32;;;;;;;2.17;2.03;;;7.10;98.00;;;8.19;52.07;101108.19;4950132;28;96791;-49
2021/04/07 10:10:00;;;;;;;3.10;2.17;;;7.50;98.80;;;8.93;50.94;101111.13;4953025;28;96833;-50
2021/04/07 10:12:28;;;;;;;2.53;1.93;;;8.60;96.10;;;9.57;48.29;101109.66;4953321;28;98557;-52
2021/04/07 10:15:00;;;;;;;1.63;1.50;;;9.50;93.50;;;10.16;47.97;101109.91;4966397;28;97381;-51
2021/04/07 10:17:27;;;;;;;2.70;2.40;;;10.00;93.10;;;10.04;47.15;101115.50;4954262;28;97769;-53
2021/04/07 10:19:54;;;;;;;2.20;2.00;;;10.00;92.50;;;10.47;46.50;101115.22;4969781;28;97251;-50
2021/04/07 10:22:29;;;;;;;3.33;2.60;;;10.40;91.60;;;9.43;49.53;101123.16;4954906;28;100724;-50